Shinsei — JD3674 — position and weather

sailwx.info

Track history (hours):
 
Tides and Currents Weather Stations Pressure Air Temp Water Temp Dewpoint Dewpoint Depression Visibility Wind Speed Wind Dir Waves Ship Positions

Shinsei

Last reported at 2018-Jun-16 19:50 UTC. Time now 2018-Jun-18 11:26 UTC.
Position N 35°33' E 139°55'.

Length 74 m; draft 4.9 m.

Type: Cargo ship. MMSI: 431005241.

Date/timePositionNaut miles runAvg speedWind from/ knotsBaromVisibWave heightAir tempDewpointWater temp
2018-Jun-16 19:50N 35°33' E 139°55'411.0
2018-Jun-16 19:30N 35°30' E 139°53'510.9
2018-Jun-16 19:00N 35°26' E 139°48'611.5
2018-Jun-16 18:30N 35°21' E 139°45'610.8
2018-Jun-16 17:58N 35°15' E 139°47'511.2
2018-Jun-16 17:30N 35°10' E 139°47'24510.3
2018-Jun-15 17:48N 33°48' E 135°07'413.1
2018-Jun-15 17:29N 33°51' E 135°04'612.3
2018-Jun-15 16:59N 33°57' E 135°02'612.2
2018-Jun-15 16:30N 34°02' E 135°02'612.5
2018-Jun-15 15:59N 34°09' E 135°02'612.3
2018-Jun-15 15:30N 34°15' E 135°03'613.1
2018-Jun-15 15:00N 34°21' E 135°06'612.7
2018-Jun-15 14:30N 34°26' E 135°11'612.7
2018-Jun-15 13:59N 34°30' E 135°16'612.7
2018-Jun-15 13:29N 34°35' E 135°21'5 9.2
2018-Jun-15 12:58N 34°35' E 135°27'1 0.0
2018-Jun-14 06:58N 34°34' E 135°27'5 9.7
2018-Jun-14 06:29N 34°38' E 135°23'4 0.9
2018-Jun-14 02:12N 34°39' E 135°28'0 0.0
2018-Jun-14 01:54N 34°39' E 135°28'0 0.0
2018-Jun-14 00:28N 34°39' E 135°28'0 0.0
2018-Jun-13 23:13N 34°39' E 135°28'0 0.7
2018-Jun-13 23:01N 34°39' E 135°28'1 2.9
2018-Jun-13 22:30N 34°40' E 135°27'0 0.0
2018-Jun-13 22:00N 34°40' E 135°27'0 0.0
2018-Jun-13 02:29N 34°40' E 135°27'2 3.5
2018-Jun-13 02:00N 34°39' E 135°25'611.7
2018-Jun-13 01:31N 34°36' E 135°20'612.2
2018-Jun-13 01:01N 34°31' E 135°15'611.1
2018-Jun-13 00:31N 34°27' E 135°11'611.4
2018-Jun-12 23:59N 34°22' E 135°07'612.1
2018-Jun-12 23:30N 34°17' E 135°03'611.8
2018-Jun-12 23:00N 34°11' E 135°02'612.1
2018-Jun-12 22:31N 34°05' E 135°02'612.1
2018-Jun-12 22:00N 33°59' E 135°02'  
2018-Jun-09 10:06N 35°13' E 139°46'212.3
2018-Jun-09 09:57N 35°15' E 139°46'512.3
2018-Jun-09 09:30N 35°20' E 139°43'611.3
2018-Jun-09 09:00N 35°25' E 139°44'612.3
2018-Jun-09 08:30N 35°29' E 139°50'13 1.3
2018-Jun-08 22:34N 35°40' E 139°57'0 2.6
2018-Jun-08 22:25N 35°40' E 139°57'2 2.4
2018-Jun-08 21:45N 35°41' E 139°59'0 0.0
2018-Jun-08 21:30N 35°41' E 139°59'5 0.3
2018-Jun-08 04:34N 35°35' E 139°58'213.4
2018-Jun-08 04:23N 35°33' E 139°56'513.2
2018-Jun-08 04:00N 35°30' E 139°52'612.5
2018-Jun-08 03:30N 35°28' E 139°45'4 7.3
2018-Jun-08 03:00N 35°28' E 139°41'0 0.0
2018-Jun-08 02:30N 35°28' E 139°41'0 0.0
2018-Jun-08 02:00N 35°28' E 139°41'0 0.0
2018-Jun-08 01:30N 35°28' E 139°41'0 0.0
2018-Jun-08 00:57N 35°28' E 139°41'0 0.0
2018-Jun-08 00:30N 35°28' E 139°41'0 0.0
2018-Jun-08 00:00N 35°28' E 139°41'0 0.0
2018-Jun-07 23:30N 35°28' E 139°41'0 0.0
2018-Jun-07 23:00N 35°28' E 139°41'1 2.0
2018-Jun-07 22:30N 35°27' E 139°41'1 1.8
2018-Jun-07 22:00N 35°27' E 139°42'0 0.1
2018-Jun-07 21:30N 35°27' E 139°43'0 0.1
2018-Jun-07 21:00N 35°27' E 139°42'0 0.1
2018-Jun-07 20:30N 35°27' E 139°43'0 0.1
2018-Jun-07 20:00N 35°27' E 139°42'0 0.1
2018-Jun-07 19:30N 35°27' E 139°43'0 0.1
2018-Jun-07 19:00N 35°27' E 139°42'0 0.0
2018-Jun-07 18:30N 35°27' E 139°42'0 0.0
2018-Jun-07 18:00N 35°27' E 139°42'0 0.0
2018-Jun-07 17:30N 35°27' E 139°42'0 0.0
2018-Jun-07 17:00N 35°27' E 139°42'0 0.0
2018-Jun-07 16:30N 35°27' E 139°42'0 0.0
2018-Jun-07 16:00N 35°27' E 139°42'0 0.0
2018-Jun-07 15:30N 35°27' E 139°42'0 0.1
2018-Jun-07 15:00N 35°27' E 139°43'0 0.0
2018-Jun-07 14:30N 35°27' E 139°43'0 0.0
2018-Jun-07 14:00N 35°27' E 139°43'0 0.0
2018-Jun-07 13:30N 35°27' E 139°43'0 0.0
2018-Jun-07 13:00N 35°27' E 139°43'0 0.0
2018-Jun-07 12:30N 35°27' E 139°43'0 0.1
2018-Jun-07 12:00N 35°27' E 139°42'0 0.1
2018-Jun-07 11:30N 35°27' E 139°43'0 0.0
2018-Jun-07 11:00N 35°27' E 139°43'0 0.0
2018-Jun-07 10:30N 35°27' E 139°43'0 0.0
2018-Jun-07 10:00N 35°27' E 139°43'0 0.0
2018-Jun-07 09:30N 35°27' E 139°43'0 0.0
2018-Jun-07 09:00N 35°27' E 139°43'0 0.0
2018-Jun-07 08:30N 35°27' E 139°43'0 0.0
2018-Jun-07 08:00N 35°27' E 139°43'0 0.1
2018-Jun-07 07:30N 35°27' E 139°42'0 0.0
2018-Jun-07 07:00N 35°27' E 139°42'0 0.0
2018-Jun-07 06:30N 35°27' E 139°42'0 0.0
2018-Jun-07 06:00N 35°27' E 139°42'0 0.0
2018-Jun-07 05:30N 35°27' E 139°42'0 0.0
2018-Jun-07 05:00N 35°27' E 139°42'0 0.0
2018-Jun-07 04:30N 35°27' E 139°42'4 8.5
2018-Jun-07 04:00N 35°28' E 139°48'14 3.3
2018-Jun-06 23:39N 35°40' E 139°57'3 6.6
2018-Jun-06 23:16N 35°38' E 139°59'  
Track history (hours):
 
Tides and Currents Weather Stations Pressure Air Temp Water Temp Dewpoint Dewpoint Depression Visibility Wind Speed Wind Dir Waves Ship Positions

Shinsei

Last reported at 2018-Jun-16 19:50 UTC. Time now 2018-Jun-18 11:26 UTC.
Position N 35°33' E 139°55'.

Length 74 m; draft 4.9 m.

Type: Cargo ship. MMSI: 431005241.

Date/timePositionNaut miles runAvg speedWind from/ knotsBaromVisibWave heightAir tempDewpointWater temp
2018-Jun-16 19:50N 35°33' E 139°55'411.0
2018-Jun-16 19:30N 35°30' E 139°53'510.9
2018-Jun-16 19:00N 35°26' E 139°48'611.5
2018-Jun-16 18:30N 35°21' E 139°45'610.8
2018-Jun-16 17:58N 35°15' E 139°47'511.2
2018-Jun-16 17:30N 35°10' E 139°47'24510.3
2018-Jun-15 17:48N 33°48' E 135°07'413.1
2018-Jun-15 17:29N 33°51' E 135°04'612.3
2018-Jun-15 16:59N 33°57' E 135°02'612.2
2018-Jun-15 16:30N 34°02' E 135°02'612.5
2018-Jun-15 15:59N 34°09' E 135°02'612.3
2018-Jun-15 15:30N 34°15' E 135°03'613.1
2018-Jun-15 15:00N 34°21' E 135°06'612.7
2018-Jun-15 14:30N 34°26' E 135°11'612.7
2018-Jun-15 13:59N 34°30' E 135°16'612.7
2018-Jun-15 13:29N 34°35' E 135°21'5 9.2
2018-Jun-15 12:58N 34°35' E 135°27'1 0.0
2018-Jun-14 06:58N 34°34' E 135°27'5 9.7
2018-Jun-14 06:29N 34°38' E 135°23'4 0.9
2018-Jun-14 02:12N 34°39' E 135°28'0 0.0
2018-Jun-14 01:54N 34°39' E 135°28'0 0.0
2018-Jun-14 00:28N 34°39' E 135°28'0 0.0
2018-Jun-13 23:13N 34°39' E 135°28'0 0.7
2018-Jun-13 23:01N 34°39' E 135°28'1 2.9
2018-Jun-13 22:30N 34°40' E 135°27'0 0.0
2018-Jun-13 22:00N 34°40' E 135°27'0 0.0
2018-Jun-13 02:29N 34°40' E 135°27'2 3.5
2018-Jun-13 02:00N 34°39' E 135°25'611.7
2018-Jun-13 01:31N 34°36' E 135°20'612.2
2018-Jun-13 01:01N 34°31' E 135°15'611.1
2018-Jun-13 00:31N 34°27' E 135°11'611.4
2018-Jun-12 23:59N 34°22' E 135°07'612.1
2018-Jun-12 23:30N 34°17' E 135°03'611.8
2018-Jun-12 23:00N 34°11' E 135°02'612.1
2018-Jun-12 22:31N 34°05' E 135°02'612.1
2018-Jun-12 22:00N 33°59' E 135°02'  
2018-Jun-09 10:06N 35°13' E 139°46'212.3
2018-Jun-09 09:57N 35°15' E 139°46'512.3
2018-Jun-09 09:30N 35°20' E 139°43'611.3
2018-Jun-09 09:00N 35°25' E 139°44'612.3
2018-Jun-09 08:30N 35°29' E 139°50'13 1.3
2018-Jun-08 22:34N 35°40' E 139°57'0 2.6
2018-Jun-08 22:25N 35°40' E 139°57'2 2.4
2018-Jun-08 21:45N 35°41' E 139°59'0 0.0
2018-Jun-08 21:30N 35°41' E 139°59'5 0.3
2018-Jun-08 04:34N 35°35' E 139°58'213.4
2018-Jun-08 04:23N 35°33' E 139°56'513.2
2018-Jun-08 04:00N 35°30' E 139°52'612.5
2018-Jun-08 03:30N 35°28' E 139°45'4 7.3
2018-Jun-08 03:00N 35°28' E 139°41'0 0.0
2018-Jun-08 02:30N 35°28' E 139°41'0 0.0
2018-Jun-08 02:00N 35°28' E 139°41'0 0.0
2018-Jun-08 01:30N 35°28' E 139°41'0 0.0
2018-Jun-08 00:57N 35°28' E 139°41'0 0.0
2018-Jun-08 00:30N 35°28' E 139°41'0 0.0
2018-Jun-08 00:00N 35°28' E 139°41'0 0.0
2018-Jun-07 23:30N 35°28' E 139°41'0 0.0
2018-Jun-07 23:00N 35°28' E 139°41'1 2.0
2018-Jun-07 22:30N 35°27' E 139°41'1 1.8
2018-Jun-07 22:00N 35°27' E 139°42'0 0.1
2018-Jun-07 21:30N 35°27' E 139°43'0 0.1
2018-Jun-07 21:00N 35°27' E 139°42'0 0.1
2018-Jun-07 20:30N 35°27' E 139°43'0 0.1
2018-Jun-07 20:00N 35°27' E 139°42'0 0.1
2018-Jun-07 19:30N 35°27' E 139°43'0 0.1
2018-Jun-07 19:00N 35°27' E 139°42'0 0.0
2018-Jun-07 18:30N 35°27' E 139°42'0 0.0
2018-Jun-07 18:00N 35°27' E 139°42'0 0.0
2018-Jun-07 17:30N 35°27' E 139°42'0 0.0
2018-Jun-07 17:00N 35°27' E 139°42'0 0.0
2018-Jun-07 16:30N 35°27' E 139°42'0 0.0
2018-Jun-07 16:00N 35°27' E 139°42'0 0.0
2018-Jun-07 15:30N 35°27' E 139°42'0 0.1
2018-Jun-07 15:00N 35°27' E 139°43'0 0.0
2018-Jun-07 14:30N 35°27' E 139°43'0 0.0
2018-Jun-07 14:00N 35°27' E 139°43'0 0.0
2018-Jun-07 13:30N 35°27' E 139°43'0 0.0
2018-Jun-07 13:00N 35°27' E 139°43'0 0.0
2018-Jun-07 12:30N 35°27' E 139°43'0 0.1
2018-Jun-07 12:00N 35°27' E 139°42'0 0.1
2018-Jun-07 11:30N 35°27' E 139°43'0 0.0
2018-Jun-07 11:00N 35°27' E 139°43'0 0.0
2018-Jun-07 10:30N 35°27' E 139°43'0 0.0
2018-Jun-07 10:00N 35°27' E 139°43'0 0.0
2018-Jun-07 09:30N 35°27' E 139°43'0 0.0
2018-Jun-07 09:00N 35°27' E 139°43'0 0.0
2018-Jun-07 08:30N 35°27' E 139°43'0 0.0
2018-Jun-07 08:00N 35°27' E 139°43'0 0.1
2018-Jun-07 07:30N 35°27' E 139°42'0 0.0
2018-Jun-07 07:00N 35°27' E 139°42'0 0.0
2018-Jun-07 06:30N 35°27' E 139°42'0 0.0
2018-Jun-07 06:00N 35°27' E 139°42'0 0.0
2018-Jun-07 05:30N 35°27' E 139°42'0 0.0
2018-Jun-07 05:00N 35°27' E 139°42'0 0.0
2018-Jun-07 04:30N 35°27' E 139°42'4 8.5
2018-Jun-07 04:00N 35°28' E 139°48'14 3.3
2018-Jun-06 23:39N 35°40' E 139°57'3 6.6
2018-Jun-06 23:16N 35°38' E 139°59'  

Dump ship's entire track history